Terminal Aerodrome Forecast
Issued by NWS

Home | Current Version | Previous Version | Text Only | Print | Product List | Glossary On
Versions: 1 2 3 4 5 6 7 8 9 10 11 12 13 14 15 16 17 18 19 20 21 22 23 24 25 26 27
428
FTUS42 KJAX 270539
TAFVQQ
TAF
KVQQ 270539Z 2706/2806 VRB03KT 3SM BR VCSH SCT005 BKN015 OVC100
      TEMPO 2706/2710 SCT015
     FM271300 20004KT P6SM VCSH SCT020 BKN100 OVC200
     FM271700 17007KT P6SM VCTS SCT040CB BKN250 PROB30 2717/2721
      VRB15G25KT 3SM +TSRA BR SCT030 BKN040CB OVC070=

USA.gov is the U.S. government's official web portal to all federal, state and local government web resources and services.